首页
METAR-TAF:

METAR-TAF

机场 :

维多利亚国际机场

維多利亞, 不列颠哥伦比亚, 加拿大

纬度: 48-39N, 经度: 123-26W, 海拔: 20米

当前天气观测

该预报发布于1小时和12分钟前的19:00 UTC
风速13节,风向南转南东
温度 11°C
湿度 100%
气压 1017 hPa
能見度: 19.3公里
少量云层高于900英尺
少量云层高于1700英尺
多云层高于4600英尺
多云层高于7700英尺

METAR: CYYJ 171900Z 15013KT 12SM FEW009 FEW017 BKN046 BKN077 11/11 A3003 RMK SF1SC1SC4AC1 SLP170

时间: 12:12 (20:12 UTC)

预报

该预报发布于2小时和32分钟前的17:40 UTC
预报有效从17日的 18点(UTC)到 18日的 18点(UTC)
风速12节,风向南转南东,有时为22节阵风
能見度: 10公里
散云层高于1500英尺
多云层高于4000英尺
短暂存在
从 17日的 18点(UTC)到 17日的 20点(UTC)
能見度: 8.0公里
散云层高于600英尺
多云层高于1500英尺
小雨, 轻雾
成为
从 17日的 18点(UTC)到 17日的 20点(UTC)
风速10节,风向西南
从 17日的 2000点(UTC)
风速10节,风向西南
能見度: 10公里
散云层高于3000英尺
从 18日的 0800点(UTC)
风速5节,风向西
能見度: 10公里
散云层高于600英尺
多云层高于1200英尺
短暂存在
从 18日的 08点(UTC)到 18日的 18点(UTC)
能見度: 4.8公里
多云层高于600英尺
小毛毛雨, 轻雾
几率 30%
从 18日的 08点(UTC)到 18日的 18点(UTC)
能見度: 0.8公里
层高于200英尺

TAF: CYYJ 171740Z 1718/1818 15012G22KT P6SM SCT015 BKN040 TEMPO 1718/1720 5SM -RA BR SCT006 BKN015 BECMG 1718/1720 22010KT FM172000 22010KT P6SM SCT030 FM180800 27005KT P6SM SCT006 BKN012 TEMPO 1808/1818 3SM -DZ BR BKN006 PROB30 1808/1818 1/2SM FG VV002 RMK NXT FCST BY 180000Z

超过4000个机场的气象观测和天气预报(METAR&TAF报告)。

可查询的气象台以黄色和红色小点在地图上表示。

将鼠标移到小点上方,可查看气象台名称。

然后点击查看天气观测和预报。

如需切换地图:点击带黑十字的绿色按钮放大地图;点击带横线的绿色按钮缩小地图;或者点击绿色箭头查看邻近地区的地图。


METAR-TAF: